sensor_id;sensor_type;location;lat;lon;timestamp;pressure;altitude;pressure_sealevel;temperature;humidity
75996;BME280;64681;49.738;9.004;2023-05-10T00:00:52;98762.31;;;14.47;85.34
75996;BME280;64681;49.738;9.004;2023-05-10T00:03:18;98750.81;;;14.47;85.66
75996;BME280;64681;49.738;9.004;2023-05-10T00:05:43;98756.19;;;14.47;85.36
75996;BME280;64681;49.738;9.004;2023-05-10T00:08:09;98746.13;;;14.40;85.28
75996;BME280;64681;49.738;9.004;2023-05-10T00:10:35;98749.84;;;14.66;83.88
75996;BME280;64681;49.738;9.004;2023-05-10T00:13:01;98755.50;;;14.61;83.76
75996;BME280;64681;49.738;9.004;2023-05-10T00:15:26;98752.84;;;14.64;83.21
75996;BME280;64681;49.738;9.004;2023-05-10T00:17:52;98745.38;;;14.39;84.05
75996;BME280;64681;49.738;9.004;2023-05-10T00:20:18;98751.09;;;14.38;83.84
75996;BME280;64681;49.738;9.004;2023-05-10T00:22:43;98768.72;;;14.35;84.16
75996;BME280;64681;49.738;9.004;2023-05-10T00:25:09;98772.25;;;14.39;84.24
75996;BME280;64681;49.738;9.004;2023-05-10T00:27:35;98770.16;;;14.22;84.54
75996;BME280;64681;49.738;9.004;2023-05-10T00:30:01;98755.41;;;14.05;84.97
75996;BME280;64681;49.738;9.004;2023-05-10T00:32:27;98769.53;;;14.36;83.98
75996;BME280;64681;49.738;9.004;2023-05-10T00:34:52;98725.88;;;14.05;84.08
75996;BME280;64681;49.738;9.004;2023-05-10T00:37:18;98762.41;;;14.58;81.99
75996;BME280;64681;49.738;9.004;2023-05-10T00:39:44;98773.13;;;14.54;82.05
75996;BME280;64681;49.738;9.004;2023-05-10T00:42:09;98770.00;;;14.49;82.31
75996;BME280;64681;49.738;9.004;2023-05-10T00:44:35;98778.53;;;13.83;84.90
75996;BME280;64681;49.738;9.004;2023-05-10T00:47:00;98771.88;;;14.03;84.47
75996;BME280;64681;49.738;9.004;2023-05-10T00:49:26;98763.16;;;13.80;84.77
75996;BME280;64681;49.738;9.004;2023-05-10T00:51:52;98773.50;;;13.47;86.06
75996;BME280;64681;49.738;9.004;2023-05-10T00:54:18;98773.47;;;13.74;85.31
75996;BME280;64681;49.738;9.004;2023-05-10T00:56:44;98764.63;;;13.73;85.06
75996;BME280;64681;49.738;9.004;2023-05-10T00:59:18;98788.25;;;13.95;84.95
75996;BME280;64681;49.738;9.004;2023-05-10T01:01:47;98781.25;;;13.86;85.06
75996;BME280;64681;49.738;9.004;2023-05-10T01:04:14;98793.84;;;13.79;85.54
75996;BME280;64681;49.738;9.004;2023-05-10T01:06:41;98795.91;;;13.92;84.60
75996;BME280;64681;49.738;9.004;2023-05-10T01:09:07;98762.44;;;13.83;84.18
75996;BME280;64681;49.738;9.004;2023-05-10T01:11:38;98787.63;;;14.05;83.34
75996;BME280;64681;49.738;9.004;2023-05-10T01:14:06;98777.63;;;13.68;84.34
75996;BME280;64681;49.738;9.004;2023-05-10T01:16:38;98778.63;;;13.90;83.98
75996;BME280;64681;49.738;9.004;2023-05-10T01:19:17;98785.16;;;13.92;83.97
75996;BME280;64681;49.738;9.004;2023-05-10T01:35:51;98790.22;;;13.98;83.56
75996;BME280;64681;49.738;9.004;2023-05-10T01:38:44;98791.78;;;14.02;83.36
75996;BME280;64681;49.738;9.004;2023-05-10T01:41:28;98794.69;;;13.86;83.80
75996;BME280;64681;49.738;9.004;2023-05-10T01:44:20;98786.13;;;13.77;84.36
75996;BME280;64681;49.738;9.004;2023-05-10T01:47:05;98778.63;;;13.56;84.25
75996;BME280;64681;49.738;9.004;2023-05-10T01:50:01;98807.34;;;13.55;84.49
75996;BME280;64681;49.738;9.004;2023-05-10T01:52:31;98802.16;;;13.70;84.30
75996;BME280;64681;49.738;9.004;2023-05-10T01:55:11;98792.78;;;13.56;84.97
75996;BME280;64681;49.738;9.004;2023-05-10T01:57:43;98815.22;;;13.71;84.50
75996;BME280;64681;49.738;9.004;2023-05-10T02:00:11;98800.94;;;13.64;84.56
75996;BME280;64681;49.738;9.004;2023-05-10T02:02:39;98805.28;;;13.75;84.20
75996;BME280;64681;49.738;9.004;2023-05-10T02:05:08;98812.31;;;13.57;84.49
75996;BME280;64681;49.738;9.004;2023-05-10T02:07:37;98816.47;;;13.24;85.12
75996;BME280;64681;49.738;9.004;2023-05-10T02:10:06;98804.63;;;13.02;85.97
75996;BME280;64681;49.738;9.004;2023-05-10T02:12:42;98805.72;;;12.97;86.32
75996;BME280;64681;49.738;9.004;2023-05-10T02:15:11;98812.84;;;13.12;86.15
75996;BME280;64681;49.738;9.004;2023-05-10T02:17:39;98815.94;;;13.14;86.14
75996;BME280;64681;49.738;9.004;2023-05-10T02:20:09;98796.31;;;13.10;85.51
75996;BME280;64681;49.738;9.004;2023-05-10T02:22:36;98799.81;;;13.11;85.38
75996;BME280;64681;49.738;9.004;2023-05-10T02:25:04;98821.88;;;13.27;85.58
75996;BME280;64681;49.738;9.004;2023-05-10T02:27:30;98815.63;;;13.20;85.34
75996;BME280;64681;49.738;9.004;2023-05-10T02:29:58;98824.13;;;13.25;85.74
75996;BME280;64681;49.738;9.004;2023-05-10T02:32:25;98825.63;;;13.23;85.84
75996;BME280;64681;49.738;9.004;2023-05-10T02:34:53;98823.59;;;13.16;86.10
75996;BME280;64681;49.738;9.004;2023-05-10T02:37:21;98819.47;;;13.22;85.70
75996;BME280;64681;49.738;9.004;2023-05-10T02:39:50;98831.19;;;13.37;85.84
75996;BME280;64681;49.738;9.004;2023-05-10T02:42:18;98820.59;;;13.44;85.36
75996;BME280;64681;49.738;9.004;2023-05-10T02:44:51;98822.28;;;13.56;84.86
75996;BME280;64681;49.738;9.004;2023-05-10T02:47:19;98823.09;;;13.60;84.84
75996;BME280;64681;49.738;9.004;2023-05-10T02:49:45;98813.31;;;13.45;85.22
75996;BME280;64681;49.738;9.004;2023-05-10T02:52:17;98815.72;;;13.50;85.03
75996;BME280;64681;49.738;9.004;2023-05-10T02:54:46;98828.88;;;13.63;84.75
75996;BME280;64681;49.738;9.004;2023-05-10T02:57:16;98804.66;;;13.55;84.46
75996;BME280;64681;49.738;9.004;2023-05-10T02:59:44;98831.50;;;13.86;83.86
75996;BME280;64681;49.738;9.004;2023-05-10T03:02:12;98825.50;;;13.66;84.04
75996;BME280;64681;49.738;9.004;2023-05-10T03:04:38;98832.75;;;13.65;83.94
75996;BME280;64681;49.738;9.004;2023-05-10T03:07:04;98826.91;;;13.56;84.10
75996;BME280;64681;49.738;9.004;2023-05-10T03:09:31;98827.19;;;13.51;84.02
75996;BME280;64681;49.738;9.004;2023-05-10T03:12:33;98838.19;;;13.42;84.61
75996;BME280;64681;49.738;9.004;2023-05-10T03:20:30;98839.44;;;13.48;83.68
75996;BME280;64681;49.738;9.004;2023-05-10T03:23:13;98833.53;;;13.39;83.67
75996;BME280;64681;49.738;9.004;2023-05-10T03:25:43;98839.44;;;13.48;84.02
75996;BME280;64681;49.738;9.004;2023-05-10T03:28:09;98842.53;;;13.27;84.03
75996;BME280;64681;49.738;9.004;2023-05-10T03:30:36;98847.09;;;13.23;84.21
75996;BME280;64681;49.738;9.004;2023-05-10T03:33:05;98845.78;;;13.13;84.29
75996;BME280;64681;49.738;9.004;2023-05-10T03:35:31;98840.13;;;13.18;84.31
75996;BME280;64681;49.738;9.004;2023-05-10T03:37:57;98833.81;;;13.07;84.32
75996;BME280;64681;49.738;9.004;2023-05-10T03:40:23;98844.03;;;13.24;83.87
75996;BME280;64681;49.738;9.004;2023-05-10T03:42:49;98833.88;;;13.37;83.70
75996;BME280;64681;49.738;9.004;2023-05-10T03:45:15;98844.97;;;13.36;83.50
75996;BME280;64681;49.738;9.004;2023-05-10T03:47:40;98856.28;;;13.49;83.10
75996;BME280;64681;49.738;9.004;2023-05-10T03:50:07;98855.66;;;13.59;83.06
75996;BME280;64681;49.738;9.004;2023-05-10T03:52:32;98848.09;;;13.65;82.04
75996;BME280;64681;49.738;9.004;2023-05-10T03:54:58;98849.34;;;13.44;82.79
75996;BME280;64681;49.738;9.004;2023-05-10T03:57:24;98847.78;;;13.20;83.65
75996;BME280;64681;49.738;9.004;2023-05-10T03:59:49;98859.84;;;13.56;82.38
75996;BME280;64681;49.738;9.004;2023-05-10T04:02:15;98852.03;;;13.21;83.20
75996;BME280;64681;49.738;9.004;2023-05-10T04:04:41;98852.97;;;13.32;83.48
75996;BME280;64681;49.738;9.004;2023-05-10T04:07:07;98848.50;;;13.40;82.52
75996;BME280;64681;49.738;9.004;2023-05-10T04:09:32;98857.97;;;13.60;82.03
75996;BME280;64681;49.738;9.004;2023-05-10T04:11:58;98858.78;;;13.61;81.96
75996;BME280;64681;49.738;9.004;2023-05-10T04:14:25;98860.16;;;13.51;82.81
75996;BME280;64681;49.738;9.004;2023-05-10T04:16:50;98850.06;;;13.41;82.80
75996;BME280;64681;49.738;9.004;2023-05-10T04:19:16;98851.97;;;13.40;82.68
75996;BME280;64681;49.738;9.004;2023-05-10T04:21:42;98861.44;;;13.61;82.83
75996;BME280;64681;49.738;9.004;2023-05-10T04:24:07;98872.50;;;13.86;82.26
75996;BME280;64681;49.738;9.004;2023-05-10T04:26:33;98882.22;;;13.95;81.86
75996;BME280;64681;49.738;9.004;2023-05-10T04:28:58;98868.66;;;13.57;82.26
75996;BME280;64681;49.738;9.004;2023-05-10T04:31:24;98866.34;;;13.55;82.81
75996;BME280;64681;49.738;9.004;2023-05-10T04:33:49;98871.16;;;13.69;82.23
75996;BME280;64681;49.738;9.004;2023-05-10T04:36:15;98866.16;;;13.68;82.61
75996;BME280;64681;49.738;9.004;2023-05-10T04:38:41;98867.47;;;13.54;81.91
75996;BME280;64681;49.738;9.004;2023-05-10T04:41:08;98873.84;;;13.69;81.82
75996;BME280;64681;49.738;9.004;2023-05-10T04:43:34;98876.00;;;13.60;82.25
75996;BME280;64681;49.738;9.004;2023-05-10T04:46:00;98891.63;;;13.81;82.13
75996;BME280;64681;49.738;9.004;2023-05-10T04:48:26;98879.16;;;13.66;81.42
75996;BME280;64681;49.738;9.004;2023-05-10T04:50:52;98870.63;;;13.87;81.33
75996;BME280;64681;49.738;9.004;2023-05-10T04:53:17;98885.94;;;13.86;81.25
75996;BME280;64681;49.738;9.004;2023-05-10T04:55:43;98882.34;;;13.75;81.21
75996;BME280;64681;49.738;9.004;2023-05-10T04:58:09;98899.78;;;13.88;80.64
75996;BME280;64681;49.738;9.004;2023-05-10T05:00:34;98892.19;;;13.67;80.84
75996;BME280;64681;49.738;9.004;2023-05-10T05:03:00;98896.44;;;13.99;80.68
75996;BME280;64681;49.738;9.004;2023-05-10T05:05:26;98904.50;;;13.99;80.30
75996;BME280;64681;49.738;9.004;2023-05-10T05:07:51;98904.38;;;14.18;80.07
75996;BME280;64681;49.738;9.004;2023-05-10T05:10:17;98911.56;;;14.45;78.46
75996;BME280;64681;49.738;9.004;2023-05-10T05:12:43;98900.25;;;14.28;79.13
75996;BME280;64681;49.738;9.004;2023-05-10T05:15:08;98902.38;;;14.46;78.82
75996;BME280;64681;49.738;9.004;2023-05-10T05:17:37;98913.50;;;14.44;77.88
75996;BME280;64681;49.738;9.004;2023-05-10T05:20:03;98915.94;;;14.56;78.19
75996;BME280;64681;49.738;9.004;2023-05-10T05:22:29;98921.81;;;14.66;78.11
75996;BME280;64681;49.738;9.004;2023-05-10T05:24:55;98912.38;;;14.83;76.43
75996;BME280;64681;49.738;9.004;2023-05-10T05:27:21;98918.94;;;14.51;76.82
75996;BME280;64681;49.738;9.004;2023-05-10T05:29:50;98924.75;;;14.57;77.61
75996;BME280;64681;49.738;9.004;2023-05-10T05:32:16;98934.69;;;14.53;77.47
75996;BME280;64681;49.738;9.004;2023-05-10T05:34:44;98932.31;;;14.44;77.07
75996;BME280;64681;49.738;9.004;2023-05-10T05:37:14;98935.47;;;14.53;77.42
75996;BME280;64681;49.738;9.004;2023-05-10T05:39:40;98927.34;;;14.50;77.46
75996;BME280;64681;49.738;9.004;2023-05-10T05:42:06;98939.19;;;14.45;77.28
75996;BME280;64681;49.738;9.004;2023-05-10T05:44:31;98937.44;;;14.56;77.18
75996;BME280;64681;49.738;9.004;2023-05-10T05:46:57;98931.81;;;14.35;77.32
75996;BME280;64681;49.738;9.004;2023-05-10T05:49:22;98930.53;;;13.95;78.15
75996;BME280;64681;49.738;9.004;2023-05-10T05:51:48;98940.38;;;14.14;78.31
75996;BME280;64681;49.738;9.004;2023-05-10T05:54:15;98942.03;;;14.25;77.37
75996;BME280;64681;49.738;9.004;2023-05-10T05:56:41;98938.03;;;14.43;77.30
75996;BME280;64681;49.738;9.004;2023-05-10T05:59:06;98957.63;;;14.77;76.60
75996;BME280;64681;49.738;9.004;2023-05-10T06:01:32;98951.59;;;14.87;75.99
75996;BME280;64681;49.738;9.004;2023-05-10T06:03:57;98950.25;;;15.08;75.58
75996;BME280;64681;49.738;9.004;2023-05-10T06:06:23;98958.94;;;15.32;74.95
75996;BME280;64681;49.738;9.004;2023-05-10T06:08:48;98961.50;;;15.66;74.70
75996;BME280;64681;49.738;9.004;2023-05-10T06:11:14;98966.91;;;15.66;74.06
75996;BME280;64681;49.738;9.004;2023-05-10T06:13:39;98965.91;;;15.85;72.43
75996;BME280;64681;49.738;9.004;2023-05-10T06:16:05;98969.34;;;16.63;70.84
75996;BME280;64681;49.738;9.004;2023-05-10T06:18:31;98957.19;;;17.49;68.70
75996;BME280;64681;49.738;9.004;2023-05-10T06:20:56;98953.94;;;18.33;65.27
75996;BME280;64681;49.738;9.004;2023-05-10T06:23:22;98956.41;;;18.80;62.15
75996;BME280;64681;49.738;9.004;2023-05-10T06:25:48;98980.41;;;19.87;59.51
75996;BME280;64681;49.738;9.004;2023-05-10T06:28:14;98968.59;;;21.53;58.37
75996;BME280;64681;49.738;9.004;2023-05-10T06:30:39;98970.81;;;22.82;52.43
75996;BME280;64681;49.738;9.004;2023-05-10T06:33:05;98967.22;;;23.55;51.17
75996;BME280;64681;49.738;9.004;2023-05-10T06:35:30;98970.16;;;24.07;49.84
75996;BME280;64681;49.738;9.004;2023-05-10T06:37:58;98956.84;;;23.96;48.50
75996;BME280;64681;49.738;9.004;2023-05-10T06:40:24;98967.28;;;23.51;49.64
75996;BME280;64681;49.738;9.004;2023-05-10T06:42:49;98966.84;;;22.50;50.30
75996;BME280;64681;49.738;9.004;2023-05-10T06:45:15;98966.41;;;21.91;52.38
75996;BME280;64681;49.738;9.004;2023-05-10T06:47:41;98975.09;;;21.08;54.09
75996;BME280;64681;49.738;9.004;2023-05-10T06:50:08;98967.31;;;21.10;54.38
75996;BME280;64681;49.738;9.004;2023-05-10T06:52:34;98959.22;;;20.79;54.71
75996;BME280;64681;49.738;9.004;2023-05-10T06:54:59;98972.41;;;20.80;55.56
75996;BME280;64681;49.738;9.004;2023-05-10T06:57:26;98968.59;;;20.70;56.07
75996;BME280;64681;49.738;9.004;2023-05-10T06:59:51;98978.91;;;20.21;56.64
75996;BME280;64681;49.738;9.004;2023-05-10T07:02:17;98957.78;;;19.59;57.17
75996;BME280;64681;49.738;9.004;2023-05-10T07:04:43;98983.91;;;19.84;58.58
75996;BME280;64681;49.738;9.004;2023-05-10T07:07:09;98974.06;;;19.59;58.09
75996;BME280;64681;49.738;9.004;2023-05-10T07:09:35;98973.69;;;19.05;60.81
75996;BME280;64681;49.738;9.004;2023-05-10T07:12:00;98965.25;;;18.95;61.06
75996;BME280;64681;49.738;9.004;2023-05-10T07:14:27;98984.06;;;19.17;60.65
75996;BME280;64681;49.738;9.004;2023-05-10T07:16:53;98983.00;;;19.04;62.10
75996;BME280;64681;49.738;9.004;2023-05-10T07:19:18;98980.53;;;19.20;61.17
75996;BME280;64681;49.738;9.004;2023-05-10T07:21:45;98987.72;;;19.45;60.40
75996;BME280;64681;49.738;9.004;2023-05-10T07:24:10;98966.22;;;19.69;59.29
75996;BME280;64681;49.738;9.004;2023-05-10T07:26:36;98984.50;;;20.41;58.27
75996;BME280;64681;49.738;9.004;2023-05-10T07:29:02;98974.66;;;20.20;56.75
75996;BME280;64681;49.738;9.004;2023-05-10T07:31:27;98989.13;;;20.71;56.63
75996;BME280;64681;49.738;9.004;2023-05-10T07:33:53;98967.94;;;21.21;55.65
75996;BME280;64681;49.738;9.004;2023-05-10T07:36:19;98977.56;;;21.49;53.74
75996;BME280;64681;49.738;9.004;2023-05-10T07:38:44;98972.13;;;21.49;55.25
75996;BME280;64681;49.738;9.004;2023-05-10T07:41:11;98973.75;;;21.19;54.08
75996;BME280;64681;49.738;9.004;2023-05-10T07:43:37;98983.69;;;21.30;53.57
75996;BME280;64681;49.738;9.004;2023-05-10T07:46:03;98993.72;;;21.09;55.25
75996;BME280;64681;49.738;9.004;2023-05-10T07:48:28;98978.41;;;19.95;57.08
75996;BME280;64681;49.738;9.004;2023-05-10T07:50:54;98989.31;;;20.26;57.07
75996;BME280;64681;49.738;9.004;2023-05-10T07:53:19;98984.00;;;20.81;55.38
75996;BME280;64681;49.738;9.004;2023-05-10T07:55:55;98986.78;;;21.32;53.54
75996;BME280;64681;49.738;9.004;2023-05-10T07:58:23;98991.63;;;20.59;54.27
75996;BME280;64681;49.738;9.004;2023-05-10T08:00:49;98987.59;;;20.39;55.91
75996;BME280;64681;49.738;9.004;2023-05-10T08:03:15;99001.06;;;20.47;57.31
75996;BME280;64681;49.738;9.004;2023-05-10T08:05:40;99009.84;;;20.93;55.84
75996;BME280;64681;49.738;9.004;2023-05-10T08:08:06;98979.06;;;21.27;54.45
75996;BME280;64681;49.738;9.004;2023-05-10T08:10:32;98989.06;;;21.33;54.19
75996;BME280;64681;49.738;9.004;2023-05-10T08:12:58;98999.00;;;21.44;53.29
75996;BME280;64681;49.738;9.004;2023-05-10T08:15:24;99011.84;;;20.85;53.80
75996;BME280;64681;49.738;9.004;2023-05-10T08:17:51;99003.53;;;20.68;55.99
75996;BME280;64681;49.738;9.004;2023-05-10T08:20:17;98998.47;;;21.01;54.54
75996;BME280;64681;49.738;9.004;2023-05-10T08:22:46;99001.22;;;21.25;54.49
75996;BME280;64681;49.738;9.004;2023-05-10T08:25:12;99008.19;;;21.26;54.48
75996;BME280;64681;49.738;9.004;2023-05-10T08:27:38;99003.28;;;20.90;55.15
75996;BME280;64681;49.738;9.004;2023-05-10T08:30:04;99009.69;;;21.31;54.50
75996;BME280;64681;49.738;9.004;2023-05-10T08:32:29;99013.69;;;21.23;53.95
75996;BME280;64681;49.738;9.004;2023-05-10T08:34:55;99014.19;;;21.89;53.04
75996;BME280;64681;49.738;9.004;2023-05-10T08:37:23;99019.38;;;22.03;52.65
75996;BME280;64681;49.738;9.004;2023-05-10T08:39:49;99019.53;;;22.36;51.35
75996;BME280;64681;49.738;9.004;2023-05-10T08:42:19;98996.44;;;22.04;52.15
75996;BME280;64681;49.738;9.004;2023-05-10T08:44:48;99026.44;;;21.26;53.79
75996;BME280;64681;49.738;9.004;2023-05-10T08:47:16;99027.88;;;21.34;53.63
75996;BME280;64681;49.738;9.004;2023-05-10T08:49:47;99026.13;;;21.20;53.16
75996;BME280;64681;49.738;9.004;2023-05-10T08:52:17;99031.44;;;21.00;53.37
75996;BME280;64681;49.738;9.004;2023-05-10T08:54:43;99036.00;;;20.79;55.67
75996;BME280;64681;49.738;9.004;2023-05-10T08:57:10;99025.53;;;20.78;54.56
75996;BME280;64681;49.738;9.004;2023-05-10T08:59:36;99030.50;;;20.14;55.86
75996;BME280;64681;49.738;9.004;2023-05-10T09:02:05;99044.78;;;20.18;56.11
75996;BME280;64681;49.738;9.004;2023-05-10T09:04:31;99048.41;;;20.00;55.27
75996;BME280;64681;49.738;9.004;2023-05-10T09:06:57;99043.34;;;20.06;57.49
75996;BME280;64681;49.738;9.004;2023-05-10T09:09:24;99041.34;;;20.14;55.28
75996;BME280;64681;49.738;9.004;2023-05-10T09:11:51;99041.09;;;20.35;55.88
75996;BME280;64681;49.738;9.004;2023-05-10T09:14:18;99048.84;;;20.71;54.13
75996;BME280;64681;49.738;9.004;2023-05-10T09:16:45;99058.06;;;21.09;54.32
75996;BME280;64681;49.738;9.004;2023-05-10T09:19:11;99048.75;;;21.10;54.26
75996;BME280;64681;49.738;9.004;2023-05-10T09:21:37;99042.41;;;21.20;53.29
75996;BME280;64681;49.738;9.004;2023-05-10T09:24:07;99052.75;;;21.01;54.74
75996;BME280;64681;49.738;9.004;2023-05-10T09:26:34;99047.38;;;21.53;52.97
75996;BME280;64681;49.738;9.004;2023-05-10T09:29:01;99056.88;;;21.92;51.71
75996;BME280;64681;49.738;9.004;2023-05-10T09:31:48;99032.72;;;22.18;51.94
75996;BME280;64681;49.738;9.004;2023-05-10T09:34:18;99055.91;;;22.66;50.79
75996;BME280;64681;49.738;9.004;2023-05-10T09:36:52;99053.72;;;21.70;50.95
75996;BME280;64681;49.738;9.004;2023-05-10T09:39:18;99051.13;;;22.10;51.41
75996;BME280;64681;49.738;9.004;2023-05-10T09:41:44;99051.06;;;22.34;50.35
75996;BME280;64681;49.738;9.004;2023-05-10T09:44:10;99042.22;;;22.29;50.09
75996;BME280;64681;49.738;9.004;2023-05-10T09:46:35;99038.00;;;22.49;49.81
75996;BME280;64681;49.738;9.004;2023-05-10T09:49:02;99035.19;;;23.09;48.56
75996;BME280;64681;49.738;9.004;2023-05-10T09:51:30;99050.47;;;23.89;46.54
75996;BME280;64681;49.738;9.004;2023-05-10T09:54:15;99043.19;;;24.45;45.27
75996;BME280;64681;49.738;9.004;2023-05-10T09:56:41;99042.72;;;24.04;44.73
75996;BME280;64681;49.738;9.004;2023-05-10T09:59:11;99043.06;;;24.36;44.50
75996;BME280;64681;49.738;9.004;2023-05-10T10:01:38;99040.59;;;24.54;46.22
75996;BME280;64681;49.738;9.004;2023-05-10T10:04:06;99030.38;;;24.29;43.43
75996;BME280;64681;49.738;9.004;2023-05-10T10:06:39;99046.91;;;23.76;45.57
75996;BME280;64681;49.738;9.004;2023-05-10T10:09:06;99044.59;;;23.24;45.67
75996;BME280;64681;49.738;9.004;2023-05-10T10:11:35;99036.78;;;22.29;47.69
75996;BME280;64681;49.738;9.004;2023-05-10T10:14:02;99053.94;;;22.26;47.28
75996;BME280;64681;49.738;9.004;2023-05-10T10:16:31;99035.75;;;22.00;49.26
75996;BME280;64681;49.738;9.004;2023-05-10T10:18:58;99036.34;;;22.91;47.56
75996;BME280;64681;49.738;9.004;2023-05-10T10:21:23;99038.56;;;23.33;45.78
75996;BME280;64681;49.738;9.004;2023-05-10T10:23:50;99037.13;;;23.62;46.49
75996;BME280;64681;49.738;9.004;2023-05-10T10:26:17;99033.38;;;23.39;46.36
75996;BME280;64681;49.738;9.004;2023-05-10T10:31:38;99044.78;;;23.50;47.58
75996;BME280;64681;49.738;9.004;2023-05-10T10:34:08;99034.63;;;23.84;43.99
75996;BME280;64681;49.738;9.004;2023-05-10T10:36:46;99040.41;;;22.83;47.21
75996;BME280;64681;49.738;9.004;2023-05-10T10:39:13;99055.31;;;22.14;49.27
75996;BME280;64681;49.738;9.004;2023-05-10T10:44:23;99066.06;;;21.19;51.05
75996;BME280;64681;49.738;9.004;2023-05-10T10:54:52;99054.78;;;22.00;50.22
75996;BME280;64681;49.738;9.004;2023-05-10T10:57:19;99050.25;;;22.77;47.20
75996;BME280;64681;49.738;9.004;2023-05-10T10:59:47;99070.66;;;23.26;47.23
75996;BME280;64681;49.738;9.004;2023-05-10T11:02:42;99066.47;;;23.01;46.49
75996;BME280;64681;49.738;9.004;2023-05-10T11:07:53;99070.50;;;24.87;44.49
75996;BME280;64681;49.738;9.004;2023-05-10T11:10:23;99072.38;;;24.61;43.82
75996;BME280;64681;49.738;9.004;2023-05-10T11:15:48;99054.75;;;23.41;46.82
75996;BME280;64681;49.738;9.004;2023-05-10T11:18:25;99050.84;;;23.05;46.53
75996;BME280;64681;49.738;9.004;2023-05-10T11:20:58;99065.28;;;23.22;47.40
75996;BME280;64681;49.738;9.004;2023-05-10T11:23:33;99064.44;;;23.25;46.29
75996;BME280;64681;49.738;9.004;2023-05-10T11:26:13;99063.19;;;22.73;47.17
75996;BME280;64681;49.738;9.004;2023-05-10T11:28:48;99075.59;;;21.86;48.78
75996;BME280;64681;49.738;9.004;2023-05-10T11:31:16;99090.88;;;21.49;49.20
75996;BME280;64681;49.738;9.004;2023-05-10T11:34:01;99071.38;;;22.05;48.34
75996;BME280;64681;49.738;9.004;2023-05-10T11:36:36;99088.00;;;21.87;50.75
75996;BME280;64681;49.738;9.004;2023-05-10T11:39:03;99088.47;;;21.58;50.73
75996;BME280;64681;49.738;9.004;2023-05-10T11:41:30;99092.47;;;21.46;50.42
75996;BME280;64681;49.738;9.004;2023-05-10T11:43:57;99092.19;;;22.16;49.91
75996;BME280;64681;49.738;9.004;2023-05-10T11:46:24;99084.25;;;22.49;47.72
75996;BME280;64681;49.738;9.004;2023-05-10T11:49:01;99097.47;;;23.07;47.83
75996;BME280;64681;49.738;9.004;2023-05-10T11:51:29;99094.78;;;21.75;48.56
75996;BME280;64681;49.738;9.004;2023-05-10T11:53:56;99092.19;;;21.68;48.23
75996;BME280;64681;49.738;9.004;2023-05-10T11:56:22;99084.75;;;21.72;47.83
75996;BME280;64681;49.738;9.004;2023-05-10T11:58:56;99101.00;;;22.00;48.10
75996;BME280;64681;49.738;9.004;2023-05-10T12:01:23;99091.34;;;22.19;47.16
75996;BME280;64681;49.738;9.004;2023-05-10T12:03:51;99097.63;;;21.92;46.89
75996;BME280;64681;49.738;9.004;2023-05-10T12:06:21;99097.03;;;22.28;46.17
75996;BME280;64681;49.738;9.004;2023-05-10T12:08:48;99096.53;;;22.77;44.87
75996;BME280;64681;49.738;9.004;2023-05-10T12:11:17;99091.78;;;23.21;45.09
75996;BME280;64681;49.738;9.004;2023-05-10T12:13:44;99092.28;;;23.33;44.83
75996;BME280;64681;49.738;9.004;2023-05-10T12:16:32;99090.47;;;23.96;43.98
75996;BME280;64681;49.738;9.004;2023-05-10T12:19:00;99086.00;;;24.18;43.49
75996;BME280;64681;49.738;9.004;2023-05-10T12:21:28;99094.88;;;23.90;43.25
75996;BME280;64681;49.738;9.004;2023-05-10T12:24:02;99086.94;;;24.12;43.70
75996;BME280;64681;49.738;9.004;2023-05-10T12:26:28;99084.31;;;23.75;42.95
75996;BME280;64681;49.738;9.004;2023-05-10T12:28:54;99090.00;;;23.64;42.73
75996;BME280;64681;49.738;9.004;2023-05-10T12:31:20;99094.09;;;23.89;42.95
75996;BME280;64681;49.738;9.004;2023-05-10T12:33:46;99093.47;;;24.31;41.85
75996;BME280;64681;49.738;9.004;2023-05-10T12:36:15;99087.53;;;24.20;40.98
75996;BME280;64681;49.738;9.004;2023-05-10T12:38:44;99098.44;;;24.49;40.41
75996;BME280;64681;49.738;9.004;2023-05-10T12:41:15;99067.66;;;24.48;40.88
75996;BME280;64681;49.738;9.004;2023-05-10T12:43:42;99113.91;;;24.98;40.95
75996;BME280;64681;49.738;9.004;2023-05-10T12:46:14;99088.03;;;25.28;39.18
75996;BME280;64681;49.738;9.004;2023-05-10T12:48:42;99101.03;;;25.11;39.24
75996;BME280;64681;49.738;9.004;2023-05-10T12:51:08;99102.66;;;25.09;39.65
75996;BME280;64681;49.738;9.004;2023-05-10T12:53:38;99082.75;;;24.07;40.81
75996;BME280;64681;49.738;9.004;2023-05-10T12:56:04;99099.88;;;24.24;41.93
75996;BME280;64681;49.738;9.004;2023-05-10T12:58:30;99106.81;;;24.12;42.57
75996;BME280;64681;49.738;9.004;2023-05-10T13:00:57;99097.16;;;24.24;40.60
75996;BME280;64681;49.738;9.004;2023-05-10T13:03:23;99111.13;;;24.26;42.06
75996;BME280;64681;49.738;9.004;2023-05-10T13:05:49;99091.44;;;23.85;41.86
75996;BME280;64681;49.738;9.004;2023-05-10T13:08:14;99103.41;;;23.02;43.99
75996;BME280;64681;49.738;9.004;2023-05-10T13:10:40;99112.91;;;23.34;43.47
75996;BME280;64681;49.738;9.004;2023-05-10T13:13:06;99111.88;;;22.87;43.24
75996;BME280;64681;49.738;9.004;2023-05-10T13:15:32;99086.66;;;21.99;43.91
75996;BME280;64681;49.738;9.004;2023-05-10T13:17:58;99110.06;;;21.93;46.23
75996;BME280;64681;49.738;9.004;2023-05-10T13:20:24;99116.94;;;20.46;46.46
75996;BME280;64681;49.738;9.004;2023-05-10T13:22:50;99111.63;;;20.35;48.25
75996;BME280;64681;49.738;9.004;2023-05-10T13:25:16;99115.38;;;20.45;47.50
75996;BME280;64681;49.738;9.004;2023-05-10T13:27:41;99099.63;;;20.33;47.84
75996;BME280;64681;49.738;9.004;2023-05-10T13:30:08;99102.88;;;20.17;49.44
75996;BME280;64681;49.738;9.004;2023-05-10T13:32:34;99103.22;;;20.22;50.42
75996;BME280;64681;49.738;9.004;2023-05-10T13:35:01;99110.59;;;20.60;50.02
75996;BME280;64681;49.738;9.004;2023-05-10T13:37:29;99108.25;;;20.97;48.99
75996;BME280;64681;49.738;9.004;2023-05-10T13:39:54;99108.06;;;21.15;47.67
75996;BME280;64681;49.738;9.004;2023-05-10T13:42:22;99107.03;;;21.32;46.73